sensor_id;sensor_type;location;lat;lon;timestamp;P1;durP1;ratioP1;P2;durP2;ratioP2
6723;SDS011;3399;52.530;13.304;2023-09-08T00:00:35;8.80;;;7.50;;
6723;SDS011;3399;52.530;13.304;2023-09-08T00:03:01;7.87;;;7.17;;
6723;SDS011;3399;52.530;13.304;2023-09-08T00:05:27;9.03;;;8.13;;
6723;SDS011;3399;52.530;13.304;2023-09-08T00:07:53;9.90;;;8.93;;
6723;SDS011;3399;52.530;13.304;2023-09-08T00:10:18;9.77;;;8.73;;
6723;SDS011;3399;52.530;13.304;2023-09-08T00:12:44;9.63;;;8.10;;
6723;SDS011;3399;52.530;13.304;2023-09-08T00:15:09;10.63;;;8.53;;
6723;SDS011;3399;52.530;13.304;2023-09-08T00:17:35;10.93;;;7.90;;
6723;SDS011;3399;52.530;13.304;2023-09-08T00:20:01;9.30;;;8.13;;
6723;SDS011;3399;52.530;13.304;2023-09-08T00:22:31;8.30;;;7.50;;
6723;SDS011;3399;52.530;13.304;2023-09-08T00:24:56;8.37;;;7.57;;
6723;SDS011;3399;52.530;13.304;2023-09-08T00:27:22;10.77;;;8.00;;
6723;SDS011;3399;52.530;13.304;2023-09-08T00:29:47;10.10;;;8.47;;
6723;SDS011;3399;52.530;13.304;2023-09-08T00:32:13;10.87;;;8.20;;
6723;SDS011;3399;52.530;13.304;2023-09-08T00:34:40;11.17;;;8.87;;
6723;SDS011;3399;52.530;13.304;2023-09-08T00:37:05;11.50;;;8.50;;
6723;SDS011;3399;52.530;13.304;2023-09-08T00:39:32;10.37;;;8.30;;
6723;SDS011;3399;52.530;13.304;2023-09-08T00:42:00;15.77;;;8.23;;
6723;SDS011;3399;52.530;13.304;2023-09-08T00:44:25;11.00;;;8.97;;
6723;SDS011;3399;52.530;13.304;2023-09-08T00:46:51;9.40;;;8.27;;
6723;SDS011;3399;52.530;13.304;2023-09-08T00:49:16;9.37;;;8.00;;
6723;SDS011;3399;52.530;13.304;2023-09-08T00:51:42;10.37;;;9.33;;
6723;SDS011;3399;52.530;13.304;2023-09-08T00:54:07;10.83;;;8.43;;
6723;SDS011;3399;52.530;13.304;2023-09-08T00:56:34;8.77;;;7.97;;
6723;SDS011;3399;52.530;13.304;2023-09-08T00:59:02;9.27;;;8.40;;
6723;SDS011;3399;52.530;13.304;2023-09-08T01:01:28;10.70;;;8.67;;
6723;SDS011;3399;52.530;13.304;2023-09-08T01:03:54;9.87;;;8.97;;
6723;SDS011;3399;52.530;13.304;2023-09-08T01:06:19;9.67;;;8.37;;
6723;SDS011;3399;52.530;13.304;2023-09-08T01:08:46;8.57;;;7.70;;
6723;SDS011;3399;52.530;13.304;2023-09-08T01:11:12;10.13;;;8.33;;
6723;SDS011;3399;52.530;13.304;2023-09-08T01:13:37;8.93;;;8.03;;
6723;SDS011;3399;52.530;13.304;2023-09-08T01:16:03;9.53;;;8.63;;
6723;SDS011;3399;52.530;13.304;2023-09-08T01:18:29;10.30;;;9.23;;
6723;SDS011;3399;52.530;13.304;2023-09-08T01:20:59;13.07;;;10.53;;
6723;SDS011;3399;52.530;13.304;2023-09-08T01:26:42;10.93;;;9.10;;
6723;SDS011;3399;52.530;13.304;2023-09-08T01:29:08;9.80;;;8.87;;
6723;SDS011;3399;52.530;13.304;2023-09-08T01:31:35;9.77;;;8.87;;
6723;SDS011;3399;52.530;13.304;2023-09-08T01:34:02;8.80;;;8.00;;
6723;SDS011;3399;52.530;13.304;2023-09-08T01:36:31;10.67;;;8.10;;
6723;SDS011;3399;52.530;13.304;2023-09-08T01:39:00;9.37;;;7.87;;
6723;SDS011;3399;52.530;13.304;2023-09-08T01:41:26;10.20;;;9.20;;
6723;SDS011;3399;52.530;13.304;2023-09-08T01:43:52;9.83;;;8.87;;
6723;SDS011;3399;52.530;13.304;2023-09-08T01:46:17;10.13;;;9.10;;
6723;SDS011;3399;52.530;13.304;2023-09-08T01:48:43;10.33;;;8.73;;
6723;SDS011;3399;52.530;13.304;2023-09-08T01:51:09;10.10;;;8.03;;
6723;SDS011;3399;52.530;13.304;2023-09-08T01:53:34;10.27;;;9.27;;
6723;SDS011;3399;52.530;13.304;2023-09-08T01:56:00;9.17;;;8.27;;
6723;SDS011;3399;52.530;13.304;2023-09-08T01:58:25;8.50;;;7.70;;
6723;SDS011;3399;52.530;13.304;2023-09-08T02:00:51;12.23;;;8.67;;
6723;SDS011;3399;52.530;13.304;2023-09-08T02:03:16;11.20;;;8.20;;
6723;SDS011;3399;52.530;13.304;2023-09-08T02:05:42;10.30;;;8.67;;
6723;SDS011;3399;52.530;13.304;2023-09-08T02:08:08;9.60;;;8.60;;
6723;SDS011;3399;52.530;13.304;2023-09-08T02:10:33;12.60;;;8.60;;
6723;SDS011;3399;52.530;13.304;2023-09-08T02:12:59;9.07;;;8.27;;
6723;SDS011;3399;52.530;13.304;2023-09-08T02:15:24;9.50;;;8.17;;
6723;SDS011;3399;52.530;13.304;2023-09-08T02:17:53;10.13;;;7.87;;
6723;SDS011;3399;52.530;13.304;2023-09-08T02:20:21;9.00;;;8.10;;
6723;SDS011;3399;52.530;13.304;2023-09-08T02:22:49;9.37;;;8.47;;
6723;SDS011;3399;52.530;13.304;2023-09-08T02:25:15;10.83;;;8.50;;
6723;SDS011;3399;52.530;13.304;2023-09-08T02:27:40;8.73;;;7.83;;
6723;SDS011;3399;52.530;13.304;2023-09-08T02:30:06;9.53;;;7.50;;
6723;SDS011;3399;52.530;13.304;2023-09-08T02:32:32;9.40;;;8.37;;
6723;SDS011;3399;52.530;13.304;2023-09-08T02:34:57;9.27;;;8.17;;
6723;SDS011;3399;52.530;13.304;2023-09-08T02:37:23;9.03;;;8.10;;
6723;SDS011;3399;52.530;13.304;2023-09-08T02:39:48;11.30;;;8.23;;
6723;SDS011;3399;52.530;13.304;2023-09-08T02:42:14;9.60;;;7.57;;
6723;SDS011;3399;52.530;13.304;2023-09-08T02:44:39;9.60;;;8.70;;
6723;SDS011;3399;52.530;13.304;2023-09-08T02:47:05;9.20;;;8.33;;
6723;SDS011;3399;52.530;13.304;2023-09-08T02:49:31;10.17;;;8.63;;
6723;SDS011;3399;52.530;13.304;2023-09-08T02:51:57;9.03;;;8.13;;
6723;SDS011;3399;52.530;13.304;2023-09-08T02:54:22;11.53;;;8.33;;
6723;SDS011;3399;52.530;13.304;2023-09-08T02:56:48;9.27;;;8.37;;
6723;SDS011;3399;52.530;13.304;2023-09-08T02:59:13;9.20;;;7.93;;
6723;SDS011;3399;52.530;13.304;2023-09-08T03:01:39;10.23;;;8.37;;
6723;SDS011;3399;52.530;13.304;2023-09-08T03:04:05;9.00;;;8.20;;
6723;SDS011;3399;52.530;13.304;2023-09-08T03:06:30;8.77;;;7.87;;
6723;SDS011;3399;52.530;13.304;2023-09-08T03:08:57;9.20;;;8.30;;
6723;SDS011;3399;52.530;13.304;2023-09-08T03:11:23;9.13;;;8.33;;
6723;SDS011;3399;52.530;13.304;2023-09-08T03:13:49;8.57;;;7.77;;
6723;SDS011;3399;52.530;13.304;2023-09-08T03:16:14;12.20;;;9.47;;
6723;SDS011;3399;52.530;13.304;2023-09-08T03:18:40;9.30;;;8.47;;
6723;SDS011;3399;52.530;13.304;2023-09-08T03:21:06;10.57;;;8.47;;
6723;SDS011;3399;52.530;13.304;2023-09-08T03:23:42;8.73;;;7.93;;
6723;SDS011;3399;52.530;13.304;2023-09-08T03:26:09;9.50;;;8.10;;
6723;SDS011;3399;52.530;13.304;2023-09-08T03:28:35;10.47;;;9.40;;
6723;SDS011;3399;52.530;13.304;2023-09-08T03:31:01;10.23;;;8.07;;
6723;SDS011;3399;52.530;13.304;2023-09-08T03:33:27;9.00;;;8.10;;
6723;SDS011;3399;52.530;13.304;2023-09-08T03:35:52;16.03;;;10.20;;
6723;SDS011;3399;52.530;13.304;2023-09-08T03:38:18;11.33;;;8.97;;
6723;SDS011;3399;52.530;13.304;2023-09-08T03:40:43;11.37;;;8.27;;
6723;SDS011;3399;52.530;13.304;2023-09-08T03:43:09;9.37;;;8.57;;
6723;SDS011;3399;52.530;13.304;2023-09-08T03:45:34;10.37;;;8.83;;
6723;SDS011;3399;52.530;13.304;2023-09-08T03:48:00;9.93;;;9.03;;
6723;SDS011;3399;52.530;13.304;2023-09-08T03:50:26;11.43;;;8.93;;
6723;SDS011;3399;52.530;13.304;2023-09-08T03:52:51;10.63;;;9.00;;
6723;SDS011;3399;52.530;13.304;2023-09-08T03:55:18;10.33;;;9.33;;
6723;SDS011;3399;52.530;13.304;2023-09-08T03:57:44;9.53;;;8.60;;
6723;SDS011;3399;52.530;13.304;2023-09-08T04:00:09;10.87;;;8.60;;
6723;SDS011;3399;52.530;13.304;2023-09-08T04:02:35;10.87;;;9.10;;
6723;SDS011;3399;52.530;13.304;2023-09-08T04:05:01;10.20;;;9.10;;
6723;SDS011;3399;52.530;13.304;2023-09-08T04:07:27;10.60;;;9.50;;
6723;SDS011;3399;52.530;13.304;2023-09-08T04:09:52;10.10;;;9.10;;
6723;SDS011;3399;52.530;13.304;2023-09-08T04:12:18;9.33;;;8.33;;
6723;SDS011;3399;52.530;13.304;2023-09-08T04:14:43;14.83;;;9.53;;
6723;SDS011;3399;52.530;13.304;2023-09-08T04:17:09;10.17;;;9.17;;
6723;SDS011;3399;52.530;13.304;2023-09-08T04:19:34;10.70;;;9.60;;
6723;SDS011;3399;52.530;13.304;2023-09-08T04:22:00;9.67;;;8.63;;
6723;SDS011;3399;52.530;13.304;2023-09-08T04:24:25;13.40;;;10.33;;
6723;SDS011;3399;52.530;13.304;2023-09-08T04:26:51;10.83;;;9.83;;
6723;SDS011;3399;52.530;13.304;2023-09-08T04:29:16;10.27;;;9.27;;
6723;SDS011;3399;52.530;13.304;2023-09-08T04:31:42;9.80;;;8.80;;
6723;SDS011;3399;52.530;13.304;2023-09-08T04:34:07;10.63;;;9.70;;
6723;SDS011;3399;52.530;13.304;2023-09-08T04:36:33;10.07;;;8.90;;
6723;SDS011;3399;52.530;13.304;2023-09-08T04:38:58;9.23;;;8.23;;
6723;SDS011;3399;52.530;13.304;2023-09-08T04:41:24;11.90;;;9.60;;
6723;SDS011;3399;52.530;13.304;2023-09-08T04:43:49;10.33;;;9.10;;
6723;SDS011;3399;52.530;13.304;2023-09-08T04:46:15;9.67;;;8.77;;
6723;SDS011;3399;52.530;13.304;2023-09-08T04:48:40;10.80;;;9.70;;
6723;SDS011;3399;52.530;13.304;2023-09-08T04:51:07;10.63;;;9.53;;
6723;SDS011;3399;52.530;13.304;2023-09-08T04:53:32;11.53;;;9.83;;
6723;SDS011;3399;52.530;13.304;2023-09-08T04:55:58;9.90;;;8.87;;
6723;SDS011;3399;52.530;13.304;2023-09-08T04:58:24;13.83;;;8.80;;
6723;SDS011;3399;52.530;13.304;2023-09-08T05:00:49;10.37;;;9.33;;
6723;SDS011;3399;52.530;13.304;2023-09-08T05:03:15;12.43;;;11.23;;
6723;SDS011;3399;52.530;13.304;2023-09-08T05:05:40;11.43;;;10.13;;
6723;SDS011;3399;52.530;13.304;2023-09-08T05:08:05;9.97;;;8.97;;
6723;SDS011;3399;52.530;13.304;2023-09-08T05:10:31;9.60;;;8.67;;
6723;SDS011;3399;52.530;13.304;2023-09-08T05:12:57;10.37;;;9.37;;
6723;SDS011;3399;52.530;13.304;2023-09-08T05:15:22;13.20;;;9.93;;
6723;SDS011;3399;52.530;13.304;2023-09-08T05:17:50;11.23;;;10.13;;
6723;SDS011;3399;52.530;13.304;2023-09-08T05:20:15;10.87;;;9.87;;
6723;SDS011;3399;52.530;13.304;2023-09-08T05:22:41;13.40;;;10.57;;
6723;SDS011;3399;52.530;13.304;2023-09-08T05:25:07;10.90;;;9.10;;
6723;SDS011;3399;52.530;13.304;2023-09-08T05:27:33;11.40;;;9.73;;
6723;SDS011;3399;52.530;13.304;2023-09-08T05:29:58;11.27;;;10.17;;
6723;SDS011;3399;52.530;13.304;2023-09-08T05:32:24;11.10;;;9.67;;
6723;SDS011;3399;52.530;13.304;2023-09-08T05:34:49;10.93;;;9.83;;
6723;SDS011;3399;52.530;13.304;2023-09-08T05:37:15;12.03;;;10.80;;
6723;SDS011;3399;52.530;13.304;2023-09-08T05:39:41;11.10;;;8.77;;
6723;SDS011;3399;52.530;13.304;2023-09-08T05:42:06;12.10;;;9.90;;
6723;SDS011;3399;52.530;13.304;2023-09-08T05:44:31;10.43;;;9.43;;
6723;SDS011;3399;52.530;13.304;2023-09-08T05:46:57;11.33;;;9.57;;
6723;SDS011;3399;52.530;13.304;2023-09-08T05:49:23;10.13;;;9.17;;
6723;SDS011;3399;52.530;13.304;2023-09-08T05:51:48;10.77;;;9.23;;
6723;SDS011;3399;52.530;13.304;2023-09-08T05:54:14;10.73;;;9.63;;
6723;SDS011;3399;52.530;13.304;2023-09-08T05:56:39;12.90;;;10.40;;
6723;SDS011;3399;52.530;13.304;2023-09-08T05:59:05;11.13;;;9.90;;
6723;SDS011;3399;52.530;13.304;2023-09-08T06:01:31;11.53;;;10.33;;
6723;SDS011;3399;52.530;13.304;2023-09-08T06:03:56;12.67;;;9.83;;
6723;SDS011;3399;52.530;13.304;2023-09-08T06:06:22;12.13;;;10.70;;
6723;SDS011;3399;52.530;13.304;2023-09-08T06:08:47;11.70;;;10.27;;
6723;SDS011;3399;52.530;13.304;2023-09-08T06:11:13;11.20;;;10.10;;
6723;SDS011;3399;52.530;13.304;2023-09-08T06:13:39;10.53;;;9.53;;
6723;SDS011;3399;52.530;13.304;2023-09-08T06:16:05;10.97;;;9.73;;
6723;SDS011;3399;52.530;13.304;2023-09-08T06:18:30;11.10;;;9.87;;
6723;SDS011;3399;52.530;13.304;2023-09-08T06:20:56;13.17;;;9.67;;
6723;SDS011;3399;52.530;13.304;2023-09-08T06:23:22;13.40;;;9.87;;
6723;SDS011;3399;52.530;13.304;2023-09-08T06:25:47;12.83;;;9.40;;
6723;SDS011;3399;52.530;13.304;2023-09-08T06:28:14;11.10;;;9.93;;
6723;SDS011;3399;52.530;13.304;2023-09-08T06:30:39;10.43;;;9.30;;
6723;SDS011;3399;52.530;13.304;2023-09-08T06:33:06;13.53;;;9.73;;
6723;SDS011;3399;52.530;13.304;2023-09-08T06:35:35;9.67;;;8.77;;
6723;SDS011;3399;52.530;13.304;2023-09-08T06:38:00;10.47;;;9.27;;
6723;SDS011;3399;52.530;13.304;2023-09-08T06:40:26;12.30;;;9.30;;
6723;SDS011;3399;52.530;13.304;2023-09-08T06:42:54;12.90;;;10.17;;
6723;SDS011;3399;52.530;13.304;2023-09-08T06:45:20;11.30;;;10.10;;
6723;SDS011;3399;52.530;13.304;2023-09-08T06:47:45;9.57;;;8.37;;
6723;SDS011;3399;52.530;13.304;2023-09-08T06:50:11;13.80;;;10.67;;
6723;SDS011;3399;52.530;13.304;2023-09-08T06:52:37;12.13;;;9.33;;
6723;SDS011;3399;52.530;13.304;2023-09-08T06:55:02;10.53;;;9.03;;
6723;SDS011;3399;52.530;13.304;2023-09-08T06:57:30;10.77;;;9.30;;
6723;SDS011;3399;52.530;13.304;2023-09-08T06:59:55;11.87;;;9.00;;
6723;SDS011;3399;52.530;13.304;2023-09-08T07:02:21;10.87;;;9.37;;
6723;SDS011;3399;52.530;13.304;2023-09-08T07:04:46;10.93;;;9.17;;
6723;SDS011;3399;52.530;13.304;2023-09-08T07:07:12;12.10;;;8.80;;
6723;SDS011;3399;52.530;13.304;2023-09-08T07:09:37;10.97;;;8.83;;
6723;SDS011;3399;52.530;13.304;2023-09-08T07:12:06;14.20;;;8.52;;
6723;SDS011;3399;52.530;13.304;2023-09-08T07:14:31;12.23;;;9.37;;
6723;SDS011;3399;52.530;13.304;2023-09-08T07:16:57;13.43;;;9.23;;
6723;SDS011;3399;52.530;13.304;2023-09-08T07:19:23;14.83;;;9.13;;
6723;SDS011;3399;52.530;13.304;2023-09-08T07:21:48;8.87;;;7.47;;
6723;SDS011;3399;52.530;13.304;2023-09-08T07:24:14;11.07;;;8.63;;
6723;SDS011;3399;52.530;13.304;2023-09-08T07:26:39;8.53;;;7.70;;
6723;SDS011;3399;52.530;13.304;2023-09-08T07:29:05;11.17;;;8.17;;
6723;SDS011;3399;52.530;13.304;2023-09-08T07:31:30;15.10;;;8.23;;
6723;SDS011;3399;52.530;13.304;2023-09-08T07:33:56;14.07;;;8.07;;
6723;SDS011;3399;52.530;13.304;2023-09-08T07:36:21;12.37;;;7.27;;
6723;SDS011;3399;52.530;13.304;2023-09-08T07:38:47;8.23;;;7.37;;
6723;SDS011;3399;52.530;13.304;2023-09-08T07:41:12;8.85;;;7.88;;
6723;SDS011;3399;52.530;13.304;2023-09-08T07:43:38;8.93;;;6.93;;
6723;SDS011;3399;52.530;13.304;2023-09-08T07:46:05;11.27;;;7.70;;
6723;SDS011;3399;52.530;13.304;2023-09-08T07:48:31;8.80;;;7.97;;
6723;SDS011;3399;52.530;13.304;2023-09-08T07:50:57;7.77;;;7.10;;
6723;SDS011;3399;52.530;13.304;2023-09-08T07:53:25;7.83;;;7.03;;
6723;SDS011;3399;52.530;13.304;2023-09-08T07:55:53;9.23;;;7.53;;
6723;SDS011;3399;52.530;13.304;2023-09-08T07:58:18;9.10;;;7.83;;
6723;SDS011;3399;52.530;13.304;2023-09-08T08:00:44;7.43;;;6.53;;
6723;SDS011;3399;52.530;13.304;2023-09-08T08:03:09;8.00;;;7.05;;
6723;SDS011;3399;52.530;13.304;2023-09-08T08:05:35;8.53;;;7.73;;
6723;SDS011;3399;52.530;13.304;2023-09-08T08:08:01;9.40;;;7.57;;
6723;SDS011;3399;52.530;13.304;2023-09-08T08:10:26;15.23;;;7.47;;
6723;SDS011;3399;52.530;13.304;2023-09-08T08:12:52;8.80;;;6.72;;
6723;SDS011;3399;52.530;13.304;2023-09-08T08:15:18;10.15;;;6.82;;
6723;SDS011;3399;52.530;13.304;2023-09-08T08:17:47;8.77;;;6.95;;
6723;SDS011;3399;52.530;13.304;2023-09-08T08:20:14;7.40;;;6.70;;
6723;SDS011;3399;52.530;13.304;2023-09-08T08:22:43;7.13;;;6.43;;
6723;SDS011;3399;52.530;13.304;2023-09-08T08:25:12;10.55;;;7.10;;
6723;SDS011;3399;52.530;13.304;2023-09-08T08:27:37;10.00;;;7.47;;
6723;SDS011;3399;52.530;13.304;2023-09-08T08:30:04;9.00;;;8.02;;
6723;SDS011;3399;52.530;13.304;2023-09-08T08:32:30;7.28;;;6.57;;
6723;SDS011;3399;52.530;13.304;2023-09-08T08:34:56;7.97;;;5.70;;
6723;SDS011;3399;52.530;13.304;2023-09-08T08:37:22;9.00;;;6.35;;
6723;SDS011;3399;52.530;13.304;2023-09-08T08:39:47;10.30;;;6.82;;
6723;SDS011;3399;52.530;13.304;2023-09-08T08:42:13;6.82;;;6.22;;
6723;SDS011;3399;52.530;13.304;2023-09-08T08:44:39;8.02;;;6.90;;
6723;SDS011;3399;52.530;13.304;2023-09-08T08:47:08;11.25;;;7.30;;
6723;SDS011;3399;52.530;13.304;2023-09-08T08:49:35;8.20;;;7.00;;
6723;SDS011;3399;52.530;13.304;2023-09-08T08:52:01;7.75;;;6.95;;
6723;SDS011;3399;52.530;13.304;2023-09-08T08:54:32;8.43;;;5.82;;
6723;SDS011;3399;52.530;13.304;2023-09-08T08:57:00;7.22;;;6.45;;
6723;SDS011;3399;52.530;13.304;2023-09-08T08:59:26;7.13;;;6.15;;
6723;SDS011;3399;52.530;13.304;2023-09-08T09:01:52;13.52;;;7.40;;
6723;SDS011;3399;52.530;13.304;2023-09-08T09:04:19;7.35;;;6.60;;
6723;SDS011;3399;52.530;13.304;2023-09-08T09:06:45;8.63;;;6.63;;
6723;SDS011;3399;52.530;13.304;2023-09-08T09:09:11;8.55;;;6.38;;
6723;SDS011;3399;52.530;13.304;2023-09-08T09:11:37;9.20;;;6.70;;
6723;SDS011;3399;52.530;13.304;2023-09-08T09:14:02;6.65;;;6.05;;
6723;SDS011;3399;52.530;13.304;2023-09-08T09:16:29;12.52;;;6.57;;
6723;SDS011;3399;52.530;13.304;2023-09-08T09:18:58;7.78;;;6.65;;
6723;SDS011;3399;52.530;13.304;2023-09-08T09:21:40;8.50;;;6.63;;
6723;SDS011;3399;52.530;13.304;2023-09-08T09:24:07;7.32;;;6.63;;
6723;SDS011;3399;52.530;13.304;2023-09-08T09:26:38;7.30;;;5.90;;
6723;SDS011;3399;52.530;13.304;2023-09-08T09:29:06;9.85;;;6.95;;
6723;SDS011;3399;52.530;13.304;2023-09-08T09:31:52;9.45;;;6.38;;
6723;SDS011;3399;52.530;13.304;2023-09-08T09:34:22;6.90;;;6.28;;
6723;SDS011;3399;52.530;13.304;2023-09-08T09:36:48;6.35;;;5.75;;
6723;SDS011;3399;52.530;13.304;2023-09-08T09:39:21;7.32;;;6.38;;
6723;SDS011;3399;52.530;13.304;2023-09-08T09:41:48;7.63;;;6.88;;
6723;SDS011;3399;52.530;13.304;2023-09-08T09:44:17;6.40;;;5.65;;
6723;SDS011;3399;52.530;13.304;2023-09-08T09:46:46;7.57;;;6.53;;
6723;SDS011;3399;52.530;13.304;2023-09-08T09:49:12;7.25;;;6.55;;
6723;SDS011;3399;52.530;13.304;2023-09-08T09:51:40;6.95;;;6.38;;
6723;SDS011;3399;52.530;13.304;2023-09-08T09:54:07;6.78;;;6.15;;
6723;SDS011;3399;52.530;13.304;2023-09-08T09:56:33;7.97;;;7.03;;
6723;SDS011;3399;52.530;13.304;2023-09-08T09:59:01;9.35;;;6.90;;
6723;SDS011;3399;52.530;13.304;2023-09-08T10:01:29;7.93;;;6.18;;
6723;SDS011;3399;52.530;13.304;2023-09-08T10:03:54;6.97;;;6.28;;
6723;SDS011;3399;52.530;13.304;2023-09-08T10:06:20;9.18;;;6.90;;
6723;SDS011;3399;52.530;13.304;2023-09-08T10:08:47;9.27;;;6.45;;
6723;SDS011;3399;52.530;13.304;2023-09-08T10:11:13;16.00;;;6.07;;
6723;SDS011;3399;52.530;13.304;2023-09-08T10:13:46;7.07;;;6.30;;
6723;SDS011;3399;52.530;13.304;2023-09-08T10:16:15;7.80;;;6.38;;
6723;SDS011;3399;52.530;13.304;2023-09-08T10:18:44;8.38;;;5.93;;
6723;SDS011;3399;52.530;13.304;2023-09-08T10:21:12;8.38;;;6.25;;
6723;SDS011;3399;52.530;13.304;2023-09-08T10:23:42;6.57;;;5.97;;
6723;SDS011;3399;52.530;13.304;2023-09-08T10:26:15;7.47;;;6.35;;
6723;SDS011;3399;52.530;13.304;2023-09-08T10:28:42;7.47;;;5.60;;
6723;SDS011;3399;52.530;13.304;2023-09-08T10:31:09;7.13;;;6.53;;
6723;SDS011;3399;52.530;13.304;2023-09-08T10:33:36;6.60;;;5.85;;
6723;SDS011;3399;52.530;13.304;2023-09-08T10:36:02;6.70;;;6.10;;
6723;SDS011;3399;52.530;13.304;2023-09-08T10:38:33;6.35;;;5.45;;
6723;SDS011;3399;52.530;13.304;2023-09-08T10:43:40;8.23;;;6.05;;
6723;SDS011;3399;52.530;13.304;2023-09-08T10:46:09;8.00;;;6.45;;
6723;SDS011;3399;52.530;13.304;2023-09-08T10:48:42;6.43;;;5.47;;
6723;SDS011;3399;52.530;13.304;2023-09-08T10:51:16;8.52;;;5.65;;
6723;SDS011;3399;52.530;13.304;2023-09-08T10:53:42;7.90;;;5.65;;
6723;SDS011;3399;52.530;13.304;2023-09-08T10:56:11;8.13;;;6.25;;
6723;SDS011;3399;52.530;13.304;2023-09-08T10:58:36;6.20;;;5.70;;
6723;SDS011;3399;52.530;13.304;2023-09-08T11:01:04;7.20;;;6.50;;
6723;SDS011;3399;52.530;13.304;2023-09-08T11:06:02;10.05;;;5.43;;
6723;SDS011;3399;52.530;13.304;2023-09-08T11:08:28;5.82;;;5.30;;
6723;SDS011;3399;52.530;13.304;2023-09-08T11:10:54;8.57;;;5.80;;
6723;SDS011;3399;52.530;13.304;2023-09-08T11:13:20;6.78;;;5.60;;
6723;SDS011;3399;52.530;13.304;2023-09-08T11:15:46;7.00;;;5.95;;
6723;SDS011;3399;52.530;13.304;2023-09-08T11:18:11;5.60;;;5.07;;
6723;SDS011;3399;52.530;13.304;2023-09-08T11:20:37;5.45;;;4.90;;
6723;SDS011;3399;52.530;13.304;2023-09-08T11:23:03;7.80;;;5.65;;
6723;SDS011;3399;52.530;13.304;2023-09-08T11:25:30;9.52;;;6.13;;
6723;SDS011;3399;52.530;13.304;2023-09-08T11:27:57;6.70;;;6.10;;
6723;SDS011;3399;52.530;13.304;2023-09-08T11:30:23;7.10;;;5.78;;
6723;SDS011;3399;52.530;13.304;2023-09-08T11:32:50;8.55;;;5.18;;
6723;SDS011;3399;52.530;13.304;2023-09-08T11:35:19;7.45;;;5.25;;
6723;SDS011;3399;52.530;13.304;2023-09-08T11:37:46;6.20;;;5.28;;
6723;SDS011;3399;52.530;13.304;2023-09-08T11:40:11;6.72;;;5.78;;
6723;SDS011;3399;52.530;13.304;2023-09-08T11:42:38;6.00;;;5.28;;
6723;SDS011;3399;52.530;13.304;2023-09-08T11:45:10;5.85;;;5.20;;
6723;SDS011;3399;52.530;13.304;2023-09-08T11:47:40;6.57;;;5.68;;
6723;SDS011;3399;52.530;13.304;2023-09-08T11:50:06;7.60;;;5.65;;
6723;SDS011;3399;52.530;13.304;2023-09-08T11:52:33;5.75;;;5.25;;
6723;SDS011;3399;52.530;13.304;2023-09-08T11:54:58;5.85;;;4.93;;
6723;SDS011;3399;52.530;13.304;2023-09-08T11:57:24;6.55;;;5.05;;
6723;SDS011;3399;52.530;13.304;2023-09-08T11:59:50;9.23;;;5.43;;
6723;SDS011;3399;52.530;13.304;2023-09-08T12:02:16;5.32;;;4.88;;
6723;SDS011;3399;52.530;13.304;2023-09-08T12:04:42;5.50;;;5.07;;
6723;SDS011;3399;52.530;13.304;2023-09-08T12:07:11;5.22;;;4.72;;
6723;SDS011;3399;52.530;13.304;2023-09-08T12:09:41;6.20;;;5.57;;
6723;SDS011;3399;52.530;13.304;2023-09-08T12:12:11;5.85;;;5.32;;
6723;SDS011;3399;52.530;13.304;2023-09-08T12:14:41;5.72;;;5.15;;
6723;SDS011;3399;52.530;13.304;2023-09-08T12:17:07;6.20;;;5.43;;
6723;SDS011;3399;52.530;13.304;2023-09-08T12:19:33;9.77;;;6.57;;
6723;SDS011;3399;52.530;13.304;2023-09-08T12:22:02;5.38;;;4.88;;
6723;SDS011;3399;52.530;13.304;2023-09-08T12:24:47;6.15;;;5.22;;
6723;SDS011;3399;52.530;13.304;2023-09-08T12:27:15;5.32;;;4.93;;
6723;SDS011;3399;52.530;13.304;2023-09-08T12:30:00;6.57;;;4.80;;
6723;SDS011;3399;52.530;13.304;2023-09-08T12:32:30;5.00;;;4.60;;
6723;SDS011;3399;52.530;13.304;2023-09-08T12:35:03;6.38;;;4.72;;
6723;SDS011;3399;52.530;13.304;2023-09-08T12:37:29;5.55;;;5.07;;
6723;SDS011;3399;52.530;13.304;2023-09-08T12:39:57;7.18;;;5.40;;
6723;SDS011;3399;52.530;13.304;2023-09-08T12:42:23;5.57;;;4.82;;
6723;SDS011;3399;52.530;13.304;2023-09-08T12:44:54;6.28;;;5.68;;
6723;SDS011;3399;52.530;13.304;2023-09-08T12:47:20;5.82;;;5.20;;
6723;SDS011;3399;52.530;13.304;2023-09-08T12:49:46;6.72;;;4.90;;
6723;SDS011;3399;52.530;13.304;2023-09-08T12:52:12;10.13;;;5.88;;
6723;SDS011;3399;52.530;13.304;2023-09-08T12:54:37;5.68;;;4.93;;
6723;SDS011;3399;52.530;13.304;2023-09-08T12:57:03;14.38;;;5.25;;
6723;SDS011;3399;52.530;13.304;2023-09-08T12:59:29;5.60;;;5.10;;
6723;SDS011;3399;52.530;13.304;2023-09-08T13:01:54;5.50;;;5.05;;
6723;SDS011;3399;52.530;13.304;2023-09-08T13:04:21;5.15;;;4.65;;
6723;SDS011;3399;52.530;13.304;2023-09-08T13:06:47;6.03;;;4.70;;
6723;SDS011;3399;52.530;13.304;2023-09-08T13:09:13;6.32;;;4.72;;
6723;SDS011;3399;52.530;13.304;2023-09-08T13:11:38;5.28;;;4.78;;
6723;SDS011;3399;52.530;13.304;2023-09-08T13:14:04;6.57;;;4.82;;
6723;SDS011;3399;52.530;13.304;2023-09-08T13:16:30;6.10;;;5.53;;
6723;SDS011;3399;52.530;13.304;2023-09-08T13:18:55;6.97;;;5.47;;
6723;SDS011;3399;52.530;13.304;2023-09-08T13:21:21;6.07;;;5.40;;
6723;SDS011;3399;52.530;13.304;2023-09-08T13:23:46;5.80;;;5.30;;
6723;SDS011;3399;52.530;13.304;2023-09-08T13:26:12;8.82;;;5.00;;
6723;SDS011;3399;52.530;13.304;2023-09-08T13:28:37;5.03;;;4.63;;
6723;SDS011;3399;52.530;13.304;2023-09-08T13:31:02;16.33;;;6.28;;
6723;SDS011;3399;52.530;13.304;2023-09-08T13:33:28;19.77;;;6.35;;
6723;SDS011;3399;52.530;13.304;2023-09-08T13:35:53;27.33;;;7.60;;
6723;SDS011;3399;52.530;13.304;2023-09-08T13:38:19;23.13;;;7.63;;
6723;SDS011;3399;52.530;13.304;2023-09-08T13:40:45;19.60;;;7.88;;
6723;SDS011;3399;52.530;13.304;2023-09-08T13:43:10;11.15;;;5.68;;
6723;SDS011;3399;52.530;13.304;2023-09-08T13:45:36;12.88;;;6.78;;
6723;SDS011;3399;52.530;13.304;2023-09-08T13:48:01;16.73;;;7.30;;
6723;SDS011;3399;52.530;13.304;2023-09-08T13:50:29;11.30;;;6.18;;
6723;SDS011;3399;52.530;13.304;2023-09-08T13:52:54;11.43;;;6.05;;
6723;SDS011;3399;52.530;13.304;2023-09-08T13:55:20;8.27;;;5.57;;
6723;SDS011;3399;52.530;13.304;2023-09-08T13:57:48;12.32;;;6.10;;
6723;SDS011;3399;52.530;13.304;2023-09-08T14:00:17;10.65;;;5.68;;
6723;SDS011;3399;52.530;13.304;2023-09-08T14:02:43;8.43;;;5.35;;
6723;SDS011;3399;52.530;13.304;2023-09-08T14:05:09;6.90;;;5.00;;
6723;SDS011;3399;52.530;13.304;2023-09-08T14:07:34;7.38;;;5.45;;
6723;SDS011;3399;52.530;13.304;2023-09-08T14:10:03;7.10;;;5.70;;
6723;SDS011;3399;52.530;13.304;2023-09-08T14:12:32;5.85;;;5.30;;
6723;SDS011;3399;52.530;13.304;2023-09-08T14:14:58;5.20;;;4.80;;
6723;SDS011;3399;52.530;13.304;2023-09-08T14:17:24;7.15;;;5.00;;
6723;SDS011;3399;52.530;13.304;2023-09-08T14:19:49;5.38;;;4.88;;
6723;SDS011;3399;52.530;13.304;2023-09-08T14:22:15;12.98;;;5.75;;
6723;SDS011;3399;52.530;13.304;2023-09-08T14:24:41;5.93;;;4.97;;
6723;SDS011;3399;52.530;13.304;2023-09-08T14:27:06;6.95;;;6.40;;
6723;SDS011;3399;52.530;13.304;2023-09-08T14:29:34;5.82;;;5.32;;
6723;SDS011;3399;52.530;13.304;2023-09-08T14:31:59;5.43;;;4.90;;
6723;SDS011;3399;52.530;13.304;2023-09-08T14:34:25;5.95;;;5.05;;
6723;SDS011;3399;52.530;13.304;2023-09-08T14:36:50;5.82;;;5.32;;
6723;SDS011;3399;52.530;13.304;2023-09-08T14:39:16;10.95;;;5.70;;
6723;SDS011;3399;52.530;13.304;2023-09-08T14:41:44;14.98;;;4.80;;
6723;SDS011;3399;52.530;13.304;2023-09-08T14:44:10;5.90;;;5.00;;
6723;SDS011;3399;52.530;13.304;2023-09-08T14:46:35;11.43;;;5.38;;
6723;SDS011;3399;52.530;13.304;2023-09-08T14:49:00;7.22;;;5.72;;
6723;SDS011;3399;52.530;13.304;2023-09-08T14:51:27;5.00;;;4.60;;
6723;SDS011;3399;52.530;13.304;2023-09-08T14:53:53;5.50;;;4.97;;
6723;SDS011;3399;52.530;13.304;2023-09-08T14:56:18;4.97;;;4.47;;
6723;SDS011;3399;52.530;13.304;2023-09-08T14:58:44;8.80;;;5.28;;